createdAt,value
2024-01-11T00:00:18.766Z,84.09
2024-01-11T00:01:19.063Z,84.09
2024-01-11T00:02:19.264Z,83.98
2024-01-11T00:03:19.541Z,83.98
2024-01-11T00:04:19.843Z,84.01
2024-01-11T00:05:20.118Z,83.91
2024-01-11T00:06:20.338Z,83.87
2024-01-11T00:07:20.522Z,84.01
2024-01-11T00:08:20.793Z,83.91
2024-01-11T00:09:20.946Z,84.12
2024-01-11T00:10:21.236Z,84.34
2024-01-11T00:11:21.462Z,84.44
2024-01-11T00:12:21.684Z,84.55
2024-01-11T00:13:21.941Z,84.66
2024-01-11T00:14:22.235Z,84.86
2024-01-11T00:15:22.509Z,84.86
2024-01-11T00:16:22.656Z,85.01
2024-01-11T00:17:22.992Z,85.22
2024-01-11T00:18:23.170Z,85.43
2024-01-11T00:19:23.416Z,85.64
2024-01-11T00:20:23.706Z,85.75
2024-01-11T00:21:23.895Z,85.86
2024-01-11T00:22:24.132Z,85.96
2024-01-11T00:23:24.491Z,86.07
2024-01-11T00:24:24.610Z,86.21
2024-01-11T00:25:24.881Z,86.21
2024-01-11T00:26:25.174Z,86.28
2024-01-11T00:27:25.356Z,86.43
2024-01-11T00:28:25.610Z,86.54
2024-01-11T00:29:25.882Z,86.64
2024-01-11T00:30:26.115Z,86.74
2024-01-11T00:31:26.378Z,86.85
2024-01-11T00:32:26.615Z,87.06
2024-01-11T00:33:26.947Z,87.27
2024-01-11T00:34:27.215Z,87.49
2024-01-11T00:35:27.373Z,87.49
2024-01-11T00:36:27.573Z,87.59
2024-01-11T00:37:27.812Z,87.59
2024-01-11T00:38:28.123Z,87.70
2024-01-11T00:39:28.317Z,87.70
2024-01-11T00:40:28.529Z,87.70
2024-01-11T00:41:28.920Z,87.70
2024-01-11T00:42:29.068Z,87.59
2024-01-11T00:43:29.325Z,87.70
2024-01-11T00:44:29.619Z,87.70
2024-01-11T00:45:29.811Z,87.70
2024-01-11T00:46:30.054Z,87.81
2024-01-11T00:47:30.374Z,87.91
2024-01-11T00:48:30.681Z,88.02
2024-01-11T00:49:30.880Z,88.02
2024-01-11T00:50:31.129Z,87.91
2024-01-11T00:51:31.313Z,87.70
2024-01-11T00:52:31.586Z,87.59
2024-01-11T00:53:32.441Z,87.59
2024-01-11T00:54:32.092Z,87.59
2024-01-11T00:55:32.371Z,87.70
2024-01-11T00:56:32.672Z,87.81
2024-01-11T00:57:32.880Z,87.91
2024-01-11T00:58:33.172Z,88.02
2024-01-11T00:59:33.458Z,88.12
2024-01-11T01:00:33.658Z,88.23
2024-01-11T01:01:33.962Z,88.37
2024-01-11T01:02:34.254Z,88.59
2024-01-11T01:03:34.546Z,88.80
2024-01-11T01:04:34.684Z,88.80
2024-01-11T01:05:35.141Z,88.90
2024-01-11T01:06:35.294Z,89.12
2024-01-11T01:07:35.480Z,89.22
2024-01-11T01:08:35.827Z,89.22
2024-01-11T01:09:35.996Z,89.33
2024-01-11T01:10:36.263Z,89.33
2024-01-11T01:11:36.673Z,89.33
2024-01-11T01:12:36.785Z,89.18
2024-01-11T01:13:37.048Z,89.08
2024-01-11T01:14:37.384Z,89.08
2024-01-11T01:15:37.557Z,88.97
2024-01-11T01:16:37.809Z,88.87
2024-01-11T01:17:38.190Z,88.87
2024-01-11T01:18:38.392Z,88.87
2024-01-11T01:19:38.659Z,88.87
2024-01-11T01:20:38.864Z,88.76
2024-01-11T01:21:39.098Z,88.76
2024-01-11T01:22:39.327Z,88.76
2024-01-11T01:23:39.668Z,88.87
2024-01-11T01:24:39.845Z,88.97
2024-01-11T01:25:40.075Z,88.97
2024-01-11T01:26:40.354Z,89.08
2024-01-11T01:27:40.593Z,89.18
2024-01-11T01:28:40.837Z,89.29
2024-01-11T01:29:41.169Z,89.40
2024-01-11T01:30:41.333Z,89.29
2024-01-11T01:31:41.576Z,89.40
2024-01-11T01:32:41.984Z,89.40
2024-01-11T01:33:42.417Z,89.40
2024-01-11T01:34:42.929Z,89.40
2024-01-11T01:35:42.654Z,89.29
2024-01-11T01:36:42.826Z,89.18
2024-01-11T01:37:43.085Z,89.08
2024-01-11T01:38:43.393Z,89.08
2024-01-11T01:39:43.660Z,89.08
2024-01-11T01:40:43.847Z,89.08
2024-01-11T01:41:44.122Z,89.08
2024-01-11T01:42:44.341Z,89.08
2024-01-11T01:43:44.620Z,89.18
2024-01-11T01:44:44.899Z,89.18
2024-01-11T01:45:45.160Z,89.18
2024-01-11T01:46:45.374Z,89.18
2024-01-11T01:47:45.794Z,89.08
2024-01-11T01:48:46.067Z,89.08
2024-01-11T01:49:46.235Z,88.97
2024-01-11T01:50:46.398Z,88.97
2024-01-11T01:51:46.878Z,88.87
2024-01-11T01:52:46.850Z,88.76
2024-01-11T01:53:47.193Z,88.87
2024-01-11T01:54:47.332Z,88.97
2024-01-11T01:55:47.601Z,88.97
2024-01-11T01:56:47.846Z,88.97
2024-01-11T01:57:48.101Z,88.97
2024-01-11T01:58:48.377Z,88.97
2024-01-11T01:59:48.602Z,89.08
2024-01-11T02:00:48.912Z,89.18
2024-01-11T02:01:49.102Z,89.29
2024-01-11T02:02:49.441Z,89.29
2024-01-11T02:03:49.671Z,89.40
2024-01-11T02:04:49.844Z,89.40
2024-01-11T02:05:50.180Z,89.40
2024-01-11T02:06:50.360Z,89.40
2024-01-11T02:07:50.622Z,89.50
2024-01-11T02:08:50.880Z,89.36
2024-01-11T02:09:51.145Z,89.14
2024-01-11T02:10:51.367Z,89.04
2024-01-11T02:11:51.618Z,88.93
2024-01-11T02:12:51.855Z,88.82
2024-01-11T02:13:52.134Z,88.72
2024-01-11T02:14:52.349Z,88.82
2024-01-11T02:15:52.597Z,88.82
2024-01-11T02:16:53.073Z,88.82
2024-01-11T02:17:53.240Z,88.93
2024-01-11T02:18:53.444Z,88.93
2024-01-11T02:19:53.603Z,88.82
2024-01-11T02:20:53.889Z,88.82
2024-01-11T02:21:54.074Z,89.14
2024-01-11T02:22:54.389Z,89.46
2024-01-11T02:23:54.636Z,89.67
2024-01-11T02:24:54.827Z,90.10
2024-01-11T02:25:55.082Z,90.52
2024-01-11T02:26:55.300Z,90.84
2024-01-11T02:27:55.557Z,91.05
2024-01-11T02:28:55.914Z,91.37
2024-01-11T02:29:56.066Z,91.47
2024-01-11T02:30:56.405Z,91.69
2024-01-11T02:31:56.631Z,91.79
2024-01-11T02:32:57.011Z,91.90
2024-01-11T02:33:57.288Z,92.32
2024-01-11T02:34:57.340Z,92.43
2024-01-11T02:35:57.594Z,92.64
2024-01-11T02:36:57.898Z,92.75
2024-01-11T02:37:58.079Z,92.85
2024-01-11T02:38:58.309Z,92.96
2024-01-11T02:39:58.547Z,93.07
2024-01-11T02:40:58.813Z,93.17
2024-01-11T02:41:59.104Z,93.38
2024-01-11T02:42:59.275Z,93.60
2024-01-11T02:43:59.527Z,93.80
2024-01-11T02:44:59.748Z,93.91
2024-01-11T02:45:59.994Z,94.02
2024-01-11T02:47:00.313Z,94.13
2024-01-11T02:48:00.953Z,94.23
2024-01-11T02:49:00.843Z,94.23
2024-01-11T02:50:01.017Z,94.34
2024-01-11T02:52:10.366Z,94.23
2024-01-11T02:53:11.382Z,94.23
2024-01-11T02:54:11.365Z,94.13
2024-01-11T02:55:11.366Z,94.13
2024-01-11T02:56:11.440Z,94.23
2024-01-11T02:57:11.398Z,94.34
2024-01-11T02:58:11.442Z,94.55
2024-01-11T02:59:11.462Z,94.65
2024-01-11T03:00:11.478Z,94.87
2024-01-11T03:01:11.498Z,94.98
2024-01-11T03:02:11.508Z,94.98
2024-01-11T03:03:11.590Z,95.08
2024-01-11T03:04:11.639Z,95.08
2024-01-11T03:05:11.577Z,95.18
2024-01-11T03:06:11.655Z,95.18
2024-01-11T03:07:11.610Z,95.18
2024-01-11T03:08:11.692Z,95.08
2024-01-11T03:09:11.688Z,95.08
2024-01-11T03:10:11.678Z,95.08
2024-01-11T03:11:11.700Z,95.18
2024-01-11T03:12:11.709Z,95.29
2024-01-11T03:13:11.768Z,95.29
2024-01-11T03:14:11.786Z,95.29
2024-01-11T03:15:11.790Z,95.29
2024-01-11T03:16:11.790Z,95.29
2024-01-11T03:17:11.920Z,95.29
2024-01-11T03:18:12.025Z,95.29
2024-01-11T03:19:11.915Z,95.29
2024-01-11T03:20:11.949Z,95.18
2024-01-11T03:21:11.914Z,95.18
2024-01-11T03:22:11.912Z,94.93
2024-01-11T03:23:12.001Z,94.82
2024-01-11T03:24:11.958Z,94.72
2024-01-11T03:25:11.969Z,94.55
2024-01-11T03:26:12.019Z,94.55
2024-01-11T03:27:12.026Z,94.55
2024-01-11T03:28:12.029Z,94.55
2024-01-11T03:29:12.104Z,94.55
2024-01-11T03:30:12.210Z,94.55
2024-01-11T03:31:12.097Z,94.55
2024-01-11T03:32:12.133Z,94.55
2024-01-11T03:33:12.666Z,94.55
2024-01-11T03:34:12.399Z,94.45
2024-01-11T03:35:12.370Z,94.40
2024-01-11T03:36:12.303Z,94.19
2024-01-11T03:37:12.276Z,94.09
2024-01-11T03:38:12.408Z,93.87
2024-01-11T03:39:12.287Z,93.77
2024-01-11T03:40:12.352Z,93.66
2024-01-11T03:41:12.497Z,93.55
2024-01-11T03:42:12.406Z,93.55
2024-01-11T03:43:12.409Z,93.44
2024-01-11T03:44:12.417Z,93.44
2024-01-11T03:45:12.425Z,93.34
2024-01-11T03:46:12.443Z,93.24
2024-01-11T03:47:12.517Z,93.24
2024-01-11T03:48:12.589Z,93.24
2024-01-11T03:49:12.542Z,93.13
2024-01-11T03:50:12.576Z,93.02
2024-01-11T03:51:12.580Z,92.92
2024-01-11T03:52:12.615Z,92.92
2024-01-11T03:53:12.706Z,92.81
2024-01-11T03:54:12.735Z,92.81
2024-01-11T03:55:12.685Z,92.81
2024-01-11T03:56:12.721Z,92.92
2024-01-11T03:57:12.777Z,92.92
2024-01-11T03:58:12.766Z,93.02
2024-01-11T03:59:12.817Z,93.02
2024-01-11T04:00:12.799Z,93.13
2024-01-11T04:01:12.910Z,93.13
2024-01-11T04:02:12.889Z,93.13
2024-01-11T04:03:12.982Z,93.13
2024-01-11T04:04:12.864Z,93.13
2024-01-11T04:05:13.036Z,93.24
2024-01-11T04:06:12.937Z,93.34
2024-01-11T04:07:12.946Z,93.34
2024-01-11T04:08:13.020Z,93.34
2024-01-11T04:09:12.999Z,93.34
2024-01-11T04:10:13.042Z,93.34
2024-01-11T04:11:13.071Z,93.44
2024-01-11T04:12:13.028Z,93.44
2024-01-11T04:13:13.095Z,93.44
2024-01-11T04:14:13.076Z,93.51
2024-01-11T04:15:13.118Z,93.51
2024-01-11T04:16:13.165Z,93.62
2024-01-11T04:17:13.248Z,93.62
2024-01-11T04:18:13.370Z,93.77
2024-01-11T04:19:13.361Z,93.87
2024-01-11T04:20:13.278Z,93.93
2024-01-11T04:21:13.283Z,93.93
2024-01-11T04:22:13.306Z,94.04
2024-01-11T04:23:13.368Z,94.04
2024-01-11T04:24:13.350Z,94.15
2024-01-11T04:25:13.404Z,94.25
2024-01-11T04:26:13.416Z,94.36
2024-01-11T04:27:13.428Z,94.36
2024-01-11T04:28:13.447Z,94.46
2024-01-11T04:29:13.466Z,94.68
2024-01-11T04:30:13.492Z,95.00
2024-01-11T04:31:13.512Z,95.21
2024-01-11T04:32:13.534Z,95.42
2024-01-11T04:33:13.674Z,95.63
2024-01-11T04:34:13.697Z,95.73
2024-01-11T04:35:13.607Z,95.84
2024-01-11T04:36:13.632Z,95.95
2024-01-11T04:37:13.653Z,96.05
2024-01-11T04:38:13.767Z,96.16
2024-01-11T04:39:13.739Z,96.26
2024-01-11T04:40:13.699Z,96.48
2024-01-11T04:41:13.790Z,96.58
2024-01-11T04:42:13.729Z,96.58
2024-01-11T04:43:13.808Z,96.75
2024-01-11T04:44:13.782Z,96.90
2024-01-11T04:45:13.812Z,96.96
2024-01-11T04:46:13.827Z,97.17
2024-01-11T04:47:13.902Z,97.39
2024-01-11T04:48:13.935Z,97.64
2024-01-11T04:49:13.952Z,97.71
2024-01-11T04:50:13.913Z,97.85
2024-01-11T04:51:13.900Z,97.91
2024-01-11T04:52:13.922Z,98.02
2024-01-11T04:53:13.998Z,98.02
2024-01-11T04:54:13.937Z,98.13
2024-01-11T04:55:13.962Z,98.13
2024-01-11T04:56:13.988Z,98.24
2024-01-11T04:57:14.000Z,98.24
2024-01-11T04:58:14.023Z,98.34
2024-01-11T04:59:14.042Z,98.44
2024-01-11T05:00:14.037Z,98.44
2024-01-11T05:01:14.086Z,98.55
2024-01-11T05:02:14.098Z,98.61
2024-01-11T05:03:14.117Z,98.61
2024-01-11T05:04:14.093Z,98.72
2024-01-11T05:05:14.121Z,98.72
2024-01-11T05:06:14.129Z,98.82
2024-01-11T05:07:14.171Z,98.82
2024-01-11T05:08:14.209Z,98.82
2024-01-11T05:09:14.186Z,98.82
2024-01-11T05:10:14.214Z,98.82
2024-01-11T05:11:14.218Z,98.82
2024-01-11T05:12:14.234Z,98.82
2024-01-11T05:13:14.255Z,98.88
2024-01-11T05:14:14.270Z,98.88
2024-01-11T05:15:14.261Z,98.88
2024-01-11T05:16:14.265Z,98.88
2024-01-11T05:17:14.326Z,98.88
2024-01-11T05:18:14.414Z,98.88
2024-01-11T05:19:14.396Z,98.99
2024-01-11T05:20:14.476Z,98.99
2024-01-11T05:21:14.366Z,98.99
2024-01-11T05:22:14.336Z,98.99
2024-01-11T05:23:14.441Z,98.99
2024-01-11T05:24:14.360Z,98.99
2024-01-11T05:25:14.392Z,99.10
2024-01-11T05:26:14.419Z,99.10
2024-01-11T05:27:14.397Z,99.20
2024-01-11T05:28:14.422Z,99.20
2024-01-11T05:29:14.496Z,99.16
2024-01-11T05:30:14.490Z,99.37
2024-01-11T05:31:14.535Z,99.58
2024-01-11T05:32:14.537Z,99.79
2024-01-11T05:33:14.537Z,99.90
2024-01-11T05:34:14.608Z,99.90
2024-01-11T05:35:14.480Z,99.99
2024-01-11T05:36:14.421Z,99.99
2024-01-11T05:37:14.432Z,99.99
2024-01-11T05:38:14.450Z,99.99
2024-01-11T05:39:14.429Z,99.99
2024-01-11T05:40:14.434Z,99.99
2024-01-11T05:41:14.472Z,99.99
2024-01-11T05:42:14.453Z,99.99
2024-01-11T05:43:14.488Z,99.99
2024-01-11T05:44:14.473Z,99.99
2024-01-11T05:45:18.126Z,99.99
2024-01-11T05:46:14.454Z,99.99
2024-01-11T05:47:14.482Z,99.99
2024-01-11T05:48:14.540Z,99.99
2024-01-11T05:49:14.535Z,99.99
2024-01-11T05:50:14.454Z,99.99
2024-01-11T05:51:14.466Z,99.99
2024-01-11T05:52:14.421Z,99.99
2024-01-11T05:53:14.494Z,99.99
2024-01-11T05:54:14.441Z,99.99
2024-01-11T05:55:14.473Z,99.99
2024-01-11T05:56:14.545Z,99.99
2024-01-11T05:57:14.459Z,99.99
2024-01-11T05:58:14.461Z,99.99
2024-01-11T05:59:14.514Z,99.99
2024-01-11T06:00:14.497Z,99.99
2024-01-11T06:01:14.504Z,99.99
2024-01-11T06:02:14.584Z,99.99
2024-01-11T06:03:14.606Z,99.99
2024-01-11T06:04:14.462Z,99.99
2024-01-11T06:05:14.562Z,99.99
2024-01-11T06:06:14.531Z,99.99
2024-01-11T06:07:14.459Z,99.99
2024-01-11T06:08:14.567Z,99.99
2024-01-11T06:09:14.461Z,99.99
2024-01-11T06:10:14.464Z,99.99
2024-01-11T06:11:14.534Z,99.99
2024-01-11T06:12:14.477Z,99.99
2024-01-11T06:13:14.488Z,99.99
2024-01-11T06:14:14.493Z,99.99
2024-01-11T06:15:14.480Z,99.99
2024-01-11T06:16:14.459Z,99.99
2024-01-11T06:17:14.545Z,99.99
2024-01-11T06:18:14.633Z,99.99
2024-01-11T06:19:14.527Z,99.99
2024-01-11T06:20:14.502Z,99.99
2024-01-11T06:21:14.452Z,99.99
2024-01-11T06:22:14.465Z,99.99
2024-01-11T06:23:14.548Z,99.99
2024-01-11T06:24:14.477Z,99.99
2024-01-11T06:25:14.473Z,99.99
2024-01-11T06:26:14.501Z,99.99
2024-01-11T06:27:14.432Z,99.99
2024-01-11T06:28:14.537Z,99.99
2024-01-11T06:29:14.473Z,99.99
2024-01-11T06:30:14.463Z,99.99
2024-01-11T06:31:14.436Z,99.99
2024-01-11T06:32:14.444Z,99.99
2024-01-11T06:33:14.585Z,99.99
2024-01-11T06:34:14.393Z,99.99
2024-01-11T06:35:14.429Z,99.99
2024-01-11T06:36:14.375Z,99.99
2024-01-11T06:37:14.342Z,99.99
2024-01-11T06:38:14.341Z,99.99
2024-01-11T06:39:14.351Z,99.99
2024-01-11T06:40:14.329Z,99.99
2024-01-11T06:41:14.344Z,99.99
2024-01-11T06:42:14.289Z,99.99
2024-01-11T06:43:14.334Z,99.99
2024-01-11T06:44:14.393Z,99.99
2024-01-11T06:45:14.284Z,99.99
2024-01-11T06:46:14.259Z,99.99
2024-01-11T06:47:14.273Z,99.99
2024-01-11T06:48:14.421Z,99.99
2024-01-11T06:49:14.342Z,99.99
2024-01-11T06:50:14.237Z,99.99
2024-01-11T06:51:14.196Z,99.99
2024-01-11T06:52:14.165Z,99.99
2024-01-11T06:53:14.164Z,99.99
2024-01-11T06:54:14.159Z,99.99
2024-01-11T06:55:14.128Z,99.99
2024-01-11T06:56:14.140Z,99.99
2024-01-11T06:57:14.116Z,99.99
2024-01-11T06:58:14.086Z,99.99
2024-01-11T06:59:14.134Z,99.99
2024-01-11T07:00:14.054Z,99.99
2024-01-11T07:01:14.093Z,99.99
2024-01-11T07:02:14.069Z,99.99
2024-01-11T07:03:14.148Z,99.99
2024-01-11T07:04:14.111Z,99.99
2024-01-11T07:05:14.137Z,99.99
2024-01-11T07:06:14.034Z,99.99
2024-01-11T07:07:13.999Z,99.99
2024-01-11T07:08:14.022Z,99.99
2024-01-11T07:09:13.999Z,99.99
2024-01-11T07:10:13.945Z,99.99
2024-01-11T07:11:13.989Z,99.99
2024-01-11T07:12:13.912Z,99.99
2024-01-11T07:13:13.943Z,99.99
2024-01-11T07:14:13.920Z,99.99
2024-01-11T07:15:13.886Z,99.99
2024-01-11T07:16:16.269Z,99.99
2024-01-11T07:17:13.903Z,99.99
2024-01-11T07:18:13.994Z,99.99
2024-01-11T07:19:13.962Z,99.99
2024-01-11T07:20:13.893Z,99.99
2024-01-11T07:21:13.815Z,99.99
2024-01-11T07:22:13.813Z,99.99
2024-01-11T07:23:13.794Z,99.99
2024-01-11T07:24:13.778Z,99.99
2024-01-11T07:25:13.745Z,99.99
2024-01-11T07:26:13.759Z,99.99
2024-01-11T07:27:13.717Z,99.99
2024-01-11T07:28:13.705Z,99.99
2024-01-11T07:29:13.733Z,99.99
2024-01-11T07:30:13.810Z,99.99
2024-01-11T07:31:13.654Z,99.99
2024-01-11T07:32:13.721Z,99.99
2024-01-11T07:33:13.764Z,99.99
2024-01-11T07:34:13.784Z,99.99
2024-01-11T07:35:16.388Z,99.99
2024-01-11T07:36:13.548Z,99.99
2024-01-11T07:37:13.585Z,99.99
2024-01-11T07:38:13.556Z,99.99
2024-01-11T07:39:13.517Z,99.99
2024-01-11T07:40:13.457Z,99.99
2024-01-11T07:41:13.608Z,99.99
2024-01-11T07:42:13.447Z,99.99
2024-01-11T07:43:13.434Z,99.99
2024-01-11T07:44:13.422Z,99.99
2024-01-11T07:45:13.379Z,99.99
2024-01-11T07:46:13.344Z,99.99
2024-01-11T07:47:13.360Z,99.99
2024-01-11T07:48:13.420Z,99.99
2024-01-11T07:49:13.381Z,99.99
2024-01-11T07:50:13.457Z,99.99
2024-01-11T07:51:13.267Z,99.99
2024-01-11T07:52:13.260Z,99.99
2024-01-11T07:53:13.295Z,99.99
2024-01-11T07:54:13.237Z,99.99
2024-01-11T07:55:13.194Z,99.99
2024-01-11T07:56:13.260Z,99.99
2024-01-11T07:57:13.155Z,99.99
2024-01-11T07:58:13.119Z,99.99
2024-01-11T07:59:13.171Z,99.99
2024-01-11T08:00:13.098Z,99.99
2024-01-11T08:01:13.146Z,99.99
2024-01-11T08:02:13.117Z,99.99
2024-01-11T08:03:13.190Z,99.99
2024-01-11T08:04:13.041Z,99.99
2024-01-11T08:05:13.161Z,99.99
2024-01-11T08:06:13.205Z,99.99
2024-01-11T08:07:13.071Z,99.99
2024-01-11T08:08:12.965Z,99.99
2024-01-11T08:09:12.937Z,99.99
2024-01-11T08:10:12.905Z,99.99
2024-01-11T08:11:12.896Z,99.99
2024-01-11T08:12:12.915Z,99.99
2024-01-11T08:13:12.836Z,99.99
2024-01-11T08:14:12.882Z,99.99
2024-01-11T08:15:12.756Z,99.99
2024-01-11T08:16:12.720Z,99.99
2024-01-11T08:17:12.725Z,99.99
2024-01-11T08:18:12.738Z,99.99
2024-01-11T08:19:12.878Z,99.99
2024-01-11T08:20:12.676Z,99.99
2024-01-11T08:21:12.613Z,99.99
2024-01-11T08:22:12.602Z,99.99
2024-01-11T08:23:12.618Z,99.99
2024-01-11T08:24:12.563Z,99.99
2024-01-11T08:25:12.528Z,99.99
2024-01-11T08:26:12.507Z,99.99
2024-01-11T08:27:12.480Z,99.99
2024-01-11T08:28:12.448Z,99.99
2024-01-11T08:29:12.437Z,99.99
2024-01-11T08:30:12.418Z,99.99
2024-01-11T08:31:12.373Z,99.99
2024-01-11T08:32:19.991Z,99.99
2024-01-11T08:33:12.455Z,99.99
2024-01-11T08:34:12.462Z,99.99
2024-01-11T08:35:12.473Z,99.99
2024-01-11T08:36:12.370Z,99.99
2024-01-11T08:37:12.177Z,99.99
2024-01-11T08:38:12.321Z,99.99
2024-01-11T08:39:12.144Z,99.99
2024-01-11T08:40:12.354Z,99.99
2024-01-11T08:41:12.131Z,99.99
2024-01-11T08:42:12.008Z,99.99
2024-01-11T08:43:11.992Z,99.99
2024-01-11T08:44:12.046Z,99.99
2024-01-11T08:45:11.986Z,99.99
2024-01-11T08:46:11.897Z,99.99
2024-01-11T08:47:11.925Z,99.99
2024-01-11T08:48:12.046Z,99.99
2024-01-11T08:49:11.892Z,99.99
2024-01-11T08:50:11.831Z,99.99
2024-01-11T08:51:11.743Z,99.99
2024-01-11T08:52:11.802Z,99.99
2024-01-11T08:53:11.740Z,99.99
2024-01-11T08:54:11.677Z,99.99
2024-01-11T08:55:11.636Z,99.99
2024-01-11T08:56:11.629Z,99.99
2024-01-11T08:57:11.570Z,99.99
2024-01-11T08:58:11.554Z,99.99
2024-01-11T08:59:11.521Z,99.99
2024-01-11T09:00:11.466Z,99.99
2024-01-11T09:01:11.521Z,99.99
2024-01-11T09:02:15.786Z,99.99
2024-01-11T09:03:11.431Z,99.99
2024-01-11T09:04:11.412Z,99.99
2024-01-11T09:05:11.316Z,99.99
2024-01-11T09:06:11.320Z,99.99
2024-01-11T09:07:11.273Z,99.99
2024-01-11T09:08:11.291Z,99.99
2024-01-11T09:09:11.237Z,99.99
2024-01-11T09:10:11.143Z,99.99
2024-01-11T09:11:11.161Z,99.99
2024-01-11T09:12:11.060Z,99.99
2024-01-11T09:13:12.621Z,99.99
2024-01-11T09:14:11.063Z,99.99
2024-01-11T09:15:10.968Z,99.99
2024-01-11T09:16:10.930Z,99.99
2024-01-11T09:17:10.924Z,99.99
2024-01-11T09:18:11.056Z,99.99
2024-01-11T09:19:10.926Z,99.99
2024-01-11T09:20:10.813Z,99.99
2024-01-11T09:21:10.755Z,99.99
2024-01-11T09:22:10.711Z,99.99
2024-01-11T09:23:10.720Z,99.99
2024-01-11T09:24:10.665Z,99.99
2024-01-11T09:25:10.597Z,99.99
2024-01-11T09:26:10.604Z,99.99
2024-01-11T09:27:10.543Z,99.99
2024-01-11T09:28:10.545Z,99.99
2024-01-11T09:29:10.515Z,99.99
2024-01-11T09:30:10.442Z,99.99
2024-01-11T09:31:10.415Z,99.99
2024-01-11T09:32:10.415Z,99.99
2024-01-11T09:33:10.456Z,99.99
2024-01-11T09:34:10.396Z,99.99
2024-01-11T09:35:12.044Z,99.99
2024-01-11T09:36:10.171Z,99.99
2024-01-11T09:37:10.149Z,99.99
2024-01-11T09:38:10.143Z,99.99
2024-01-11T09:39:10.210Z,99.99
2024-01-11T09:40:09.983Z,99.99
2024-01-11T09:41:12.006Z,99.99
2024-01-11T09:42:09.919Z,99.99
2024-01-11T09:43:09.887Z,99.99
2024-01-11T09:44:09.887Z,99.99
2024-01-11T09:45:09.799Z,99.99
2024-01-11T09:46:09.753Z,99.99
2024-01-11T09:47:11.498Z,99.99
2024-01-11T09:48:09.814Z,99.99
2024-01-11T09:49:09.662Z,99.99
2024-01-11T09:50:09.645Z,99.99
2024-01-11T09:51:09.553Z,99.99
2024-01-11T09:52:09.527Z,99.99
2024-01-11T09:53:09.528Z,99.99
2024-01-11T09:54:09.453Z,99.99
2024-01-11T09:55:09.418Z,99.99
2024-01-11T09:56:09.370Z,99.99
2024-01-11T09:57:09.330Z,99.99
2024-01-11T09:58:09.286Z,99.99
2024-01-11T09:59:10.374Z,99.99
2024-01-11T10:00:09.209Z,99.99
2024-01-11T10:01:09.229Z,99.99
2024-01-11T10:02:09.815Z,99.99
2024-01-11T10:03:09.115Z,99.99
2024-01-11T10:04:09.196Z,99.99
2024-01-11T10:05:10.894Z,99.99
2024-01-11T10:06:09.052Z,99.99
2024-01-11T10:07:08.980Z,99.99
2024-01-11T10:08:08.967Z,99.99
2024-01-11T10:09:08.928Z,99.99
2024-01-11T10:10:08.891Z,99.99
2024-01-11T10:11:08.972Z,99.99
2024-01-11T10:12:08.841Z,99.99
2024-01-11T10:13:08.795Z,99.99
2024-01-11T10:14:08.808Z,99.99
2024-01-11T10:15:08.715Z,99.99
2024-01-11T10:16:08.673Z,99.99
2024-01-11T10:17:09.809Z,99.99
2024-01-11T10:18:08.745Z,99.99
2024-01-11T10:19:08.745Z,99.99
2024-01-11T10:20:08.675Z,99.99
2024-01-11T10:21:08.635Z,99.99
2024-01-11T10:22:08.448Z,99.99
2024-01-11T10:23:08.444Z,99.99
2024-01-11T10:24:08.402Z,99.99
2024-01-11T10:25:08.340Z,99.99
2024-01-11T10:26:08.273Z,99.99
2024-01-11T10:27:08.251Z,99.99
2024-01-11T10:28:08.194Z,99.99
2024-01-11T10:29:08.220Z,99.99
2024-01-11T10:30:08.157Z,99.99
2024-01-11T10:31:08.138Z,99.99
2024-01-11T10:32:08.110Z,99.99
2024-01-11T10:33:08.328Z,99.99
2024-01-11T10:34:08.139Z,99.99
2024-01-11T10:35:07.960Z,99.99
2024-01-11T10:36:07.860Z,99.99
2024-01-11T10:37:07.820Z,99.99
2024-01-11T10:38:07.820Z,99.99
2024-01-11T10:39:07.794Z,99.99
2024-01-11T10:40:07.744Z,99.99
2024-01-11T10:41:07.772Z,99.99
2024-01-11T10:42:08.143Z,99.99
2024-01-11T10:43:07.582Z,99.99
2024-01-11T10:44:07.520Z,99.99
2024-01-11T10:45:07.470Z,99.99
2024-01-11T10:46:07.411Z,99.99
2024-01-11T10:47:07.416Z,99.99
2024-01-11T10:48:07.523Z,99.99
2024-01-11T10:49:07.409Z,99.99
2024-01-11T10:50:07.316Z,99.99
2024-01-11T10:51:07.315Z,99.99
2024-01-11T10:52:07.196Z,99.99
2024-01-11T10:53:07.180Z,99.99
2024-01-11T10:54:07.171Z,99.99
2024-01-11T10:55:07.049Z,99.99
2024-01-11T10:56:07.052Z,99.99
2024-01-11T10:57:07.333Z,99.99
2024-01-11T10:58:07.055Z,99.99
2024-01-11T10:59:06.971Z,99.99
2024-01-11T11:00:06.865Z,99.99
2024-01-11T11:01:06.847Z,99.99
2024-01-11T11:02:06.800Z,99.99
2024-01-11T11:03:06.883Z,99.99
2024-01-11T11:04:06.726Z,99.99
2024-01-11T11:05:06.740Z,99.99
2024-01-11T11:06:06.702Z,99.99
2024-01-11T11:07:06.569Z,99.99
2024-01-11T11:08:06.574Z,99.99
2024-01-11T11:09:06.513Z,99.99
2024-01-11T11:10:06.509Z,99.99
2024-01-11T11:11:06.408Z,99.99
2024-01-11T11:12:06.368Z,99.99
2024-01-11T11:13:06.284Z,99.99
2024-01-11T11:14:06.295Z,99.99
2024-01-11T11:15:06.228Z,99.99
2024-01-11T11:16:06.136Z,99.99
2024-01-11T11:17:06.158Z,99.99
2024-01-11T11:18:06.129Z,99.99
2024-01-11T11:19:06.084Z,99.99
2024-01-11T11:20:06.000Z,99.99
2024-01-11T11:21:05.980Z,99.99
2024-01-11T11:22:05.904Z,99.99
2024-01-11T11:23:05.891Z,99.99
2024-01-11T11:24:05.841Z,99.99
2024-01-11T11:25:05.774Z,99.99
2024-01-11T11:26:05.733Z,99.99
2024-01-11T11:27:05.683Z,99.99
2024-01-11T11:28:05.939Z,99.99
2024-01-11T11:29:05.618Z,99.99
2024-01-11T11:30:05.568Z,99.99
2024-01-11T11:31:05.462Z,99.99
2024-01-11T11:32:05.450Z,99.99
2024-01-11T11:33:05.457Z,99.99
2024-01-11T11:34:05.448Z,99.99
2024-01-11T11:35:05.361Z,99.99
2024-01-11T11:36:05.275Z,99.99
2024-01-11T11:37:05.246Z,99.99
2024-01-11T11:38:05.211Z,99.99
2024-01-11T11:39:05.146Z,99.99
2024-01-11T11:40:05.095Z,99.99
2024-01-11T11:41:05.090Z,99.99
2024-01-11T11:42:05.001Z,99.99
2024-01-11T11:43:04.957Z,99.99
2024-01-11T11:44:04.951Z,99.99
2024-01-11T11:45:04.888Z,99.99
2024-01-11T11:46:04.810Z,99.99
2024-01-11T11:47:04.777Z,99.99
2024-01-11T11:48:04.829Z,99.99
2024-01-11T11:49:04.675Z,99.99
2024-01-11T11:50:04.702Z,99.99
2024-01-11T11:51:04.560Z,99.99
2024-01-11T11:52:04.514Z,99.99
2024-01-11T11:53:04.498Z,99.99
2024-01-11T11:54:04.421Z,99.99
2024-01-11T11:55:04.393Z,99.99
2024-01-11T11:56:04.360Z,99.99
2024-01-11T11:57:04.308Z,99.99
2024-01-11T11:58:04.229Z,99.99
2024-01-11T11:59:04.292Z,99.99
2024-01-11T12:00:04.165Z,99.99
2024-01-11T12:01:04.242Z,99.99
2024-01-11T12:02:04.058Z,99.99
2024-01-11T12:03:04.041Z,99.99
2024-01-11T12:04:04.074Z,99.99
2024-01-11T12:05:04.046Z,99.99
2024-01-11T12:06:03.964Z,99.99
2024-01-11T12:07:03.918Z,99.99
2024-01-11T12:08:03.802Z,99.99
2024-01-11T12:09:03.698Z,99.99
2024-01-11T12:10:03.674Z,99.99
2024-01-11T12:11:03.631Z,99.99
2024-01-11T12:12:11.503Z,99.99
2024-01-11T12:13:03.488Z,99.99
2024-01-11T12:14:03.487Z,99.99
2024-01-11T12:15:03.444Z,99.99
2024-01-11T12:16:03.397Z,99.99
2024-01-11T12:17:03.419Z,99.99
2024-01-11T12:18:03.349Z,99.99
2024-01-11T12:19:03.344Z,99.99
2024-01-11T12:20:03.243Z,99.99
2024-01-11T12:21:03.150Z,99.99
2024-01-11T12:22:03.047Z,99.99
2024-01-11T12:23:03.036Z,99.99
2024-01-11T12:24:02.985Z,99.99
2024-01-11T12:25:02.961Z,99.99
2024-01-11T12:26:02.956Z,99.99
2024-01-11T12:27:02.907Z,99.99
2024-01-11T12:28:02.774Z,99.99
2024-01-11T12:29:02.791Z,99.99
2024-01-11T12:30:02.745Z,99.99
2024-01-11T12:31:02.743Z,99.99
2024-01-11T12:32:02.624Z,99.99
2024-01-11T12:33:02.665Z,99.99
2024-01-11T12:34:02.507Z,99.99
2024-01-11T12:35:02.512Z,99.99
2024-01-11T12:36:02.350Z,99.99
2024-01-11T12:37:02.300Z,99.99
2024-01-11T12:38:02.309Z,99.99
2024-01-11T12:39:02.213Z,99.99
2024-01-11T12:40:02.152Z,99.99
2024-01-11T12:41:02.120Z,99.99
2024-01-11T12:42:02.000Z,99.99
2024-01-11T12:43:01.964Z,99.99
2024-01-11T12:44:01.940Z,99.99
2024-01-11T12:45:01.954Z,99.99
2024-01-11T12:46:01.794Z,99.99
2024-01-11T12:47:01.775Z,99.99
2024-01-11T12:48:01.857Z,99.99
2024-01-11T12:49:01.667Z,99.99
2024-01-11T12:50:01.671Z,99.99
2024-01-11T12:51:10.720Z,99.99
2024-01-11T12:52:01.471Z,99.99
2024-01-11T12:53:01.390Z,99.99
2024-01-11T12:54:01.315Z,99.99